createdAt,value
2019-02-21T00:00:42.950Z,42.54
2019-02-21T00:01:43.055Z,42.03
2019-02-21T00:02:42.928Z,42.24
2019-02-21T00:03:42.918Z,42.44
2019-02-21T00:04:42.904Z,42.83
2019-02-21T00:05:42.892Z,43.14
2019-02-21T00:06:42.896Z,42.63
2019-02-21T00:07:42.875Z,42.74
2019-02-21T00:08:42.858Z,43.14
2019-02-21T00:09:42.854Z,42.44
2019-02-21T00:10:42.844Z,41.91
2019-02-21T00:11:42.846Z,41.91
2019-02-21T00:12:42.835Z,41.79
2019-02-21T00:13:42.812Z,41.17
2019-02-21T00:14:42.801Z,40.27
2019-02-21T00:15:42.845Z,40.95
2019-02-21T00:16:42.792Z,40.45
2019-02-21T00:17:42.766Z,39.53
2019-02-21T00:18:42.755Z,39.72
2019-02-21T00:19:42.752Z,38.09
2019-02-21T00:20:42.735Z,38.07
2019-02-21T00:21:42.739Z,37.64
2019-02-21T00:22:43.458Z,36.82
2019-02-21T00:23:42.699Z,36.80
2019-02-21T00:24:42.692Z,35.39
2019-02-21T00:25:42.687Z,35.97
2019-02-21T00:26:44.303Z,35.77
2019-02-21T00:27:42.663Z,34.38
2019-02-21T00:28:42.650Z,35.17
2019-02-21T00:29:42.637Z,35.06
2019-02-21T00:30:42.631Z,34.96
2019-02-21T00:31:42.620Z,34.05
2019-02-21T00:32:43.056Z,34.33
2019-02-21T00:33:42.597Z,33.93
2019-02-21T00:34:42.585Z,33.93
2019-02-21T00:35:42.590Z,34.31
2019-02-21T00:36:42.566Z,34.22
2019-02-21T00:37:42.579Z,32.92
2019-02-21T00:38:42.545Z,33.00
2019-02-21T00:39:42.547Z,33.50
2019-02-21T00:40:42.527Z,33.50
2019-02-21T00:41:42.517Z,33.50
2019-02-21T00:42:42.518Z,33.11
2019-02-21T00:43:42.495Z,33.50
2019-02-21T00:44:42.498Z,33.59
2019-02-21T00:45:42.474Z,32.99
2019-02-21T00:46:42.457Z,32.99
2019-02-21T00:47:42.476Z,33.09
2019-02-21T00:48:42.452Z,33.17
2019-02-21T00:49:42.430Z,32.86
2019-02-21T00:50:42.428Z,32.87
2019-02-21T00:51:42.409Z,32.17
2019-02-21T00:52:42.417Z,33.06
2019-02-21T00:53:42.462Z,32.17
2019-02-21T00:54:42.376Z,32.97
2019-02-21T00:55:42.373Z,32.87
2019-02-21T00:56:42.359Z,32.57
2019-02-21T00:57:42.370Z,32.57
2019-02-21T00:58:42.339Z,32.78
2019-02-21T00:59:42.328Z,32.57
2019-02-21T01:00:46.467Z,32.87
2019-02-21T01:01:42.315Z,32.96
2019-02-21T01:02:42.314Z,31.67
2019-02-21T01:03:42.302Z,31.87
2019-02-21T01:04:42.280Z,31.96
2019-02-21T01:05:42.274Z,32.24
2019-02-21T01:06:42.258Z,31.95
2019-02-21T01:07:42.266Z,31.45
2019-02-21T01:08:42.235Z,31.55
2019-02-21T01:09:42.221Z,31.24
2019-02-21T01:10:42.210Z,31.55
2019-02-21T01:11:42.202Z,31.45
2019-02-21T01:12:42.207Z,31.57
2019-02-21T01:13:42.180Z,32.17
2019-02-21T01:14:42.166Z,32.35
2019-02-21T01:15:42.156Z,32.17
2019-02-21T01:16:42.154Z,31.87
2019-02-21T01:17:42.155Z,31.87
2019-02-21T01:18:42.125Z,31.96
2019-02-21T01:19:42.112Z,32.35
2019-02-21T01:20:42.105Z,32.05
2019-02-21T01:21:42.089Z,31.35
2019-02-21T01:22:42.095Z,31.35
2019-02-21T01:23:42.072Z,31.63
2019-02-21T01:24:42.061Z,31.35
2019-02-21T01:25:42.058Z,31.24
2019-02-21T01:26:42.063Z,31.24
2019-02-21T01:27:42.042Z,31.24
2019-02-21T01:28:42.026Z,31.04
2019-02-21T01:29:42.008Z,31.26
2019-02-21T01:30:41.998Z,31.54
2019-02-21T01:31:41.995Z,31.35
2019-02-21T01:32:41.999Z,31.26
2019-02-21T01:33:41.975Z,31.35
2019-02-21T01:34:41.958Z,31.57
2019-02-21T01:35:41.943Z,31.75
2019-02-21T01:36:41.937Z,32.15
2019-02-21T01:37:41.937Z,31.67
2019-02-21T01:38:41.913Z,31.55
2019-02-21T01:39:41.904Z,31.45
2019-02-21T01:40:41.900Z,31.26
2019-02-21T01:41:41.885Z,31.26
2019-02-21T01:42:41.888Z,31.54
2019-02-21T01:43:41.861Z,31.44
2019-02-21T01:44:41.859Z,31.14
2019-02-21T01:45:41.849Z,31.14
2019-02-21T01:46:41.835Z,31.44
2019-02-21T01:47:41.854Z,31.74
2019-02-21T01:48:41.816Z,31.45
2019-02-21T01:49:41.813Z,31.26
2019-02-21T01:50:41.797Z,31.45
2019-02-21T01:51:41.782Z,31.45
2019-02-21T01:52:41.779Z,31.07
2019-02-21T01:53:41.785Z,31.77
2019-02-21T01:54:41.753Z,31.88
2019-02-21T01:55:41.767Z,31.98
2019-02-21T01:56:41.729Z,31.98
2019-02-21T01:57:41.721Z,32.59
2019-02-21T01:58:41.723Z,32.39
2019-02-21T01:59:41.708Z,32.69
2019-02-21T02:00:41.710Z,33.20
2019-02-21T02:01:41.693Z,32.90
2019-02-21T02:02:41.693Z,33.00
2019-02-21T02:03:41.680Z,33.29
2019-02-21T02:04:41.646Z,32.69
2019-02-21T02:05:41.638Z,32.49
2019-02-21T02:06:41.637Z,32.78
2019-02-21T02:07:41.617Z,32.26
2019-02-21T02:08:41.636Z,31.47
2019-02-21T02:09:41.600Z,31.15
2019-02-21T02:10:41.591Z,31.44
2019-02-21T02:11:41.581Z,30.74
2019-02-21T02:12:41.576Z,30.93
2019-02-21T02:13:41.570Z,30.23
2019-02-21T02:14:41.547Z,30.71
2019-02-21T02:15:41.537Z,30.32
2019-02-21T02:16:41.525Z,29.82
2019-02-21T02:17:41.519Z,30.00
2019-02-21T02:18:41.523Z,30.21
2019-02-21T02:19:41.497Z,30.00
2019-02-21T02:20:41.489Z,30.30
2019-02-21T02:21:41.481Z,29.92
2019-02-21T02:22:41.467Z,29.92
2019-02-21T02:23:41.475Z,30.41
2019-02-21T02:24:41.445Z,30.12
2019-02-21T02:25:41.439Z,29.94
2019-02-21T02:26:41.427Z,29.64
2019-02-21T02:27:41.419Z,29.74
2019-02-21T02:28:41.422Z,29.64
2019-02-21T02:29:41.397Z,29.94
2019-02-21T02:30:41.384Z,30.13
2019-02-21T02:31:41.375Z,29.83
2019-02-21T02:32:41.365Z,30.33
2019-02-21T02:33:41.365Z,30.04
2019-02-21T02:34:41.348Z,30.04
2019-02-21T02:35:41.330Z,30.04
2019-02-21T02:36:41.326Z,30.81
2019-02-21T02:37:41.310Z,30.71
2019-02-21T02:38:41.327Z,30.52
2019-02-21T02:39:41.287Z,30.12
2019-02-21T02:40:41.284Z,30.41
2019-02-21T02:41:41.275Z,29.83
2019-02-21T02:42:41.268Z,29.64
2019-02-21T02:43:41.273Z,30.04
2019-02-21T02:44:41.242Z,30.94
2019-02-21T02:45:41.229Z,30.84
2019-02-21T02:46:41.256Z,30.44
2019-02-21T02:47:41.210Z,31.26
2019-02-21T02:48:41.216Z,31.55
2019-02-21T02:49:41.191Z,31.45
2019-02-21T02:50:41.181Z,31.45
2019-02-21T02:51:41.168Z,31.26
2019-02-21T02:52:41.229Z,31.45
2019-02-21T02:53:41.166Z,31.35
2019-02-21T02:54:41.136Z,31.15
2019-02-21T02:55:41.135Z,31.44
2019-02-21T02:56:41.119Z,31.54
2019-02-21T02:57:41.105Z,30.84
2019-02-21T02:58:41.122Z,30.84
2019-02-21T02:59:41.364Z,30.94
2019-02-21T03:00:41.077Z,30.94
2019-02-21T03:01:41.073Z,30.15
2019-02-21T03:02:41.067Z,29.83
2019-02-21T03:03:41.148Z,30.13
2019-02-21T03:04:41.052Z,29.83
2019-02-21T03:05:41.023Z,31.23
2019-02-21T03:06:41.015Z,31.24
2019-02-21T03:07:41.015Z,30.84
2019-02-21T03:08:40.993Z,31.44
2019-02-21T03:09:40.985Z,31.55
2019-02-21T03:10:40.968Z,31.35
2019-02-21T03:11:41.008Z,31.45
2019-02-21T03:12:40.967Z,31.45
2019-02-21T03:13:40.939Z,31.45
2019-02-21T03:14:40.924Z,31.45
2019-02-21T03:15:40.919Z,31.26
2019-02-21T03:16:40.907Z,31.05
2019-02-21T03:17:40.923Z,30.94
2019-02-21T03:18:40.900Z,30.74
2019-02-21T03:19:40.887Z,31.04
2019-02-21T03:20:40.869Z,29.64
2019-02-21T03:21:40.854Z,29.94
2019-02-21T03:22:40.864Z,30.13
2019-02-21T03:23:40.841Z,30.04
2019-02-21T03:24:40.831Z,29.94
2019-02-21T03:25:40.821Z,30.23
2019-02-21T03:26:40.813Z,30.25
2019-02-21T03:27:40.899Z,30.05
2019-02-21T03:28:40.784Z,30.05
2019-02-21T03:29:40.782Z,30.35
2019-02-21T03:30:40.783Z,30.74
2019-02-21T03:31:53.689Z,31.14
2019-02-21T03:32:41.773Z,30.74
2019-02-21T03:33:40.746Z,31.24
2019-02-21T03:34:40.725Z,30.44
2019-02-21T03:35:40.726Z,30.13
2019-02-21T03:36:40.724Z,29.74
2019-02-21T03:37:40.689Z,30.04
2019-02-21T03:38:40.696Z,29.94
2019-02-21T03:39:40.676Z,29.94
2019-02-21T03:40:40.669Z,30.13
2019-02-21T03:41:40.649Z,30.33
2019-02-21T03:42:40.653Z,30.33
2019-02-21T03:43:40.645Z,30.43
2019-02-21T03:44:40.616Z,30.43
2019-02-21T03:45:40.608Z,30.33
2019-02-21T03:46:40.601Z,30.43
2019-02-21T03:47:40.592Z,30.15
2019-02-21T03:48:40.600Z,30.23
2019-02-21T03:49:40.586Z,29.95
2019-02-21T03:50:40.565Z,30.25
2019-02-21T03:51:40.587Z,31.24
2019-02-21T03:52:40.538Z,30.35
2019-02-21T03:53:40.541Z,30.94
2019-02-21T03:54:40.511Z,31.04
2019-02-21T03:55:40.514Z,29.75
2019-02-21T03:56:40.497Z,29.95
2019-02-21T03:57:40.489Z,30.13
2019-02-21T03:58:40.495Z,29.83
2019-02-21T03:59:40.465Z,30.33
2019-02-21T04:00:40.456Z,30.04
2019-02-21T04:01:40.454Z,30.12
2019-02-21T04:02:40.429Z,29.83
2019-02-21T04:03:40.447Z,30.33
2019-02-21T04:04:40.417Z,29.94
2019-02-21T04:05:40.419Z,29.94
2019-02-21T04:06:40.392Z,29.74
2019-02-21T04:07:40.383Z,30.73
2019-02-21T04:08:40.390Z,30.43
2019-02-21T04:09:40.374Z,30.23
2019-02-21T04:10:40.351Z,29.85
2019-02-21T04:11:40.344Z,29.85
2019-02-21T04:12:40.327Z,29.85
2019-02-21T04:13:40.326Z,29.95
2019-02-21T04:14:40.318Z,30.05
2019-02-21T04:15:40.298Z,29.83
2019-02-21T04:16:40.289Z,30.13
2019-02-21T04:17:40.279Z,30.73
2019-02-21T04:18:40.273Z,29.94
2019-02-21T04:19:40.280Z,29.94
2019-02-21T04:20:40.248Z,30.23
2019-02-21T04:21:40.240Z,29.74
2019-02-21T04:22:40.237Z,30.63
2019-02-21T04:23:40.226Z,30.43
2019-02-21T04:24:40.222Z,30.25
2019-02-21T04:25:40.193Z,29.95
2019-02-21T04:26:40.203Z,29.95
2019-02-21T04:27:40.183Z,31.15
2019-02-21T04:28:40.219Z,31.26
2019-02-21T04:29:40.187Z,31.37
2019-02-21T04:30:40.145Z,31.15
2019-02-21T04:31:40.134Z,31.37
2019-02-21T04:32:40.142Z,31.67
2019-02-21T04:33:40.114Z,31.87
2019-02-21T04:34:40.119Z,31.58
2019-02-21T04:35:40.094Z,32.18
2019-02-21T04:36:40.087Z,32.28
2019-02-21T04:37:40.073Z,31.80
2019-02-21T04:38:40.061Z,31.80
2019-02-21T04:39:40.073Z,31.80
2019-02-21T04:40:40.044Z,31.80
2019-02-21T04:41:40.038Z,31.90
2019-02-21T04:42:40.023Z,32.08
2019-02-21T04:43:40.015Z,32.08
2019-02-21T04:44:40.024Z,31.07
2019-02-21T04:45:39.987Z,31.47
2019-02-21T04:46:39.978Z,31.07
2019-02-21T04:47:39.974Z,31.35
2019-02-21T04:48:39.956Z,31.15
2019-02-21T04:49:39.967Z,31.55
2019-02-21T04:50:39.943Z,30.96
2019-02-21T04:51:39.924Z,31.14
2019-02-21T04:52:39.917Z,30.86
2019-02-21T04:53:39.910Z,30.86
2019-02-21T04:54:39.911Z,31.15
2019-02-21T04:55:39.886Z,30.84
2019-02-21T04:56:39.879Z,30.74
2019-02-21T04:57:39.874Z,31.04
2019-02-21T04:58:39.869Z,30.74
2019-02-21T04:59:39.879Z,30.94
2019-02-21T05:00:39.833Z,31.14
2019-02-21T05:01:40.447Z,30.94
2019-02-21T05:02:39.834Z,30.94
2019-02-21T05:03:39.800Z,30.94
2019-02-21T05:04:39.800Z,31.34
2019-02-21T05:05:39.812Z,31.13
2019-02-21T05:06:39.774Z,31.13
2019-02-21T05:07:39.761Z,31.13
2019-02-21T05:08:39.768Z,30.93
2019-02-21T05:09:39.739Z,30.73
2019-02-21T05:10:39.746Z,30.83
2019-02-21T05:11:39.728Z,30.83
2019-02-21T05:12:39.710Z,30.83
2019-02-21T05:13:39.701Z,31.13
2019-02-21T05:14:39.689Z,30.73
2019-02-21T05:15:39.700Z,31.13
2019-02-21T05:16:39.669Z,31.41
2019-02-21T05:17:39.662Z,31.11
2019-02-21T05:18:39.651Z,31.02
2019-02-21T05:19:39.638Z,30.81
2019-02-21T05:20:39.651Z,31.31
2019-02-21T05:21:39.619Z,30.81
2019-02-21T05:22:39.603Z,31.11
2019-02-21T05:23:39.596Z,31.11
2019-02-21T05:24:39.585Z,31.01
2019-02-21T05:25:39.587Z,31.01
2019-02-21T05:26:39.569Z,29.92
2019-02-21T05:27:39.576Z,31.20
2019-02-21T05:28:41.243Z,31.11
2019-02-21T05:29:39.532Z,30.62
2019-02-21T05:30:39.546Z,31.31
2019-02-21T05:31:39.583Z,31.41
2019-02-21T05:32:41.252Z,31.31
2019-02-21T05:33:39.494Z,31.11
2019-02-21T05:34:39.496Z,31.31
2019-02-21T05:35:39.503Z,31.31
2019-02-21T05:36:39.459Z,31.41
2019-02-21T05:37:39.453Z,31.60
2019-02-21T05:38:39.455Z,31.20
2019-02-21T05:39:39.492Z,31.01
2019-02-21T05:40:41.988Z,31.31
2019-02-21T05:41:39.412Z,31.29
2019-02-21T05:42:39.403Z,31.69
2019-02-21T05:43:39.392Z,31.29
2019-02-21T05:44:39.380Z,31.41
2019-02-21T05:45:39.444Z,32.20
2019-02-21T05:46:39.363Z,32.70
2019-02-21T05:47:39.346Z,32.60
2019-02-21T05:48:40.350Z,32.60
2019-02-21T05:49:39.344Z,33.11
2019-02-21T05:50:39.380Z,32.89
2019-02-21T05:51:39.312Z,33.78
2019-02-21T05:52:39.319Z,33.29
2019-02-21T05:53:39.282Z,33.29
2019-02-21T05:54:39.326Z,33.50
2019-02-21T05:55:39.308Z,34.30
2019-02-21T05:56:39.256Z,34.10
2019-02-21T05:57:39.245Z,33.89
2019-02-21T05:58:39.336Z,33.89
2019-02-21T05:59:39.288Z,33.69
2019-02-21T06:00:39.222Z,34.18
2019-02-21T06:01:39.237Z,34.18
2019-02-21T06:02:39.193Z,33.98
2019-02-21T06:03:39.183Z,34.40
2019-02-21T06:04:39.175Z,34.30
2019-02-21T06:05:39.169Z,34.99
2019-02-21T06:06:39.177Z,34.40
2019-02-21T06:07:39.178Z,34.69
2019-02-21T06:08:39.137Z,34.69
2019-02-21T06:09:39.125Z,33.92
2019-02-21T06:10:39.106Z,34.71
2019-02-21T06:11:39.134Z,34.01
2019-02-21T06:12:39.147Z,35.03
2019-02-21T06:13:39.108Z,35.03
2019-02-21T06:14:39.068Z,35.03
2019-02-21T06:15:39.061Z,35.82
2019-02-21T06:16:39.107Z,35.14
2019-02-21T06:17:39.088Z,35.36
2019-02-21T06:18:39.112Z,35.75
2019-02-21T06:19:39.024Z,35.38
2019-02-21T06:20:39.038Z,36.19
2019-02-21T06:21:39.078Z,36.68
2019-02-21T06:22:38.987Z,36.40
2019-02-21T06:23:39.482Z,37.70
2019-02-21T06:24:38.968Z,36.50
2019-02-21T06:25:50.595Z,36.21
2019-02-21T06:26:39.981Z,35.63
2019-02-21T06:27:38.978Z,34.23
2019-02-21T06:28:38.928Z,34.45
2019-02-21T06:29:38.989Z,33.75
2019-02-21T06:30:38.937Z,33.15
2019-02-21T06:31:38.964Z,33.55
2019-02-21T06:32:40.821Z,33.95
2019-02-21T06:33:38.879Z,33.25
2019-02-21T06:34:38.863Z,33.95
2019-02-21T06:35:38.853Z,33.23
2019-02-21T06:36:38.848Z,33.53
2019-02-21T06:37:38.866Z,33.32
2019-02-21T06:38:38.824Z,33.62
2019-02-21T06:39:38.855Z,33.22
2019-02-21T06:40:38.816Z,34.00
2019-02-21T06:41:38.798Z,33.30
2019-02-21T06:42:38.803Z,32.79
2019-02-21T06:43:38.769Z,32.59
2019-02-21T06:44:38.758Z,32.48
2019-02-21T06:45:38.752Z,32.76
2019-02-21T06:46:38.742Z,31.96
2019-02-21T06:47:38.730Z,31.85
2019-02-21T06:48:38.729Z,31.87
2019-02-21T06:49:38.706Z,31.95
2019-02-21T06:50:38.695Z,32.24
2019-02-21T06:51:38.682Z,32.35
2019-02-21T06:52:40.590Z,32.33
2019-02-21T06:53:38.682Z,31.93
2019-02-21T06:54:38.658Z,31.44
2019-02-21T06:55:38.648Z,31.32
2019-02-21T06:56:38.637Z,31.63
2019-02-21T06:57:38.623Z,30.93
2019-02-21T06:58:38.633Z,31.23
2019-02-21T06:59:43.236Z,31.13
2019-02-21T07:00:39.589Z,31.13
2019-02-21T07:01:38.584Z,31.42
2019-02-21T07:02:38.580Z,31.42
2019-02-21T07:03:38.583Z,31.32
2019-02-21T07:04:38.554Z,31.23
2019-02-21T07:05:38.543Z,31.13
2019-02-21T07:06:39.249Z,30.93
2019-02-21T07:07:38.524Z,31.32
2019-02-21T07:08:40.113Z,31.01
2019-02-21T07:09:38.513Z,31.31
2019-02-21T07:10:38.499Z,31.31
2019-02-21T07:11:38.480Z,31.01
2019-02-21T07:12:38.489Z,30.81
2019-02-21T07:13:38.474Z,30.81
2019-02-21T07:14:38.444Z,31.01
2019-02-21T07:15:38.450Z,30.41
2019-02-21T07:16:38.441Z,30.62
2019-02-21T07:17:48.509Z,31.11
2019-02-21T07:18:40.830Z,30.70
2019-02-21T07:19:38.396Z,31.10
2019-02-21T07:20:39.771Z,30.90
2019-02-21T07:21:38.380Z,30.70
2019-02-21T07:22:38.456Z,30.50
2019-02-21T07:23:43.603Z,30.21
2019-02-21T07:24:39.379Z,31.10
2019-02-21T07:25:38.353Z,30.10
2019-02-21T07:26:38.333Z,30.50
2019-02-21T07:27:38.323Z,31.10
2019-02-21T07:28:38.334Z,30.70
2019-02-21T07:29:38.910Z,30.80
2019-02-21T07:30:38.314Z,30.71
2019-02-21T07:31:38.277Z,30.80
2019-02-21T07:32:38.277Z,30.71
2019-02-21T07:33:38.262Z,30.71
2019-02-21T07:34:38.314Z,30.71
2019-02-21T07:35:38.233Z,31.10
2019-02-21T07:36:38.230Z,31.11
2019-02-21T07:37:38.267Z,30.71
2019-02-21T07:38:38.202Z,30.71
2019-02-21T07:39:38.225Z,30.81
2019-02-21T07:40:38.194Z,30.91
2019-02-21T07:41:38.177Z,30.41
2019-02-21T07:42:38.167Z,31.90
2019-02-21T07:43:38.184Z,31.60
2019-02-21T07:44:38.201Z,31.71
2019-02-21T07:45:38.152Z,31.60
2019-02-21T07:46:38.129Z,30.91
2019-02-21T07:47:38.114Z,31.41
2019-02-21T07:48:38.110Z,31.31
2019-02-21T07:49:38.095Z,30.81
2019-02-21T07:50:38.097Z,30.71
2019-02-21T07:51:38.066Z,31.11
2019-02-21T07:52:38.061Z,30.71
2019-02-21T07:53:38.173Z,30.81
2019-02-21T07:54:38.101Z,31.11
2019-02-21T07:55:38.115Z,31.01
2019-02-21T07:56:41.939Z,31.11
2019-02-21T07:57:38.041Z,30.81
2019-02-21T07:58:39.665Z,31.01
2019-02-21T07:59:38.036Z,30.81
2019-02-21T08:00:38.181Z,31.21
2019-02-21T08:01:37.998Z,30.71
2019-02-21T08:02:38.010Z,31.31
2019-02-21T08:03:44.299Z,31.01
2019-02-21T08:04:38.944Z,30.91
2019-02-21T08:05:38.081Z,31.11
2019-02-21T08:06:37.947Z,30.81
2019-02-21T08:07:37.933Z,30.62
2019-02-21T08:08:37.930Z,30.32
2019-02-21T08:09:37.973Z,30.71
2019-02-21T08:10:38.003Z,30.81
2019-02-21T08:11:37.922Z,31.01
2019-02-21T08:12:40.450Z,31.02
2019-02-21T08:13:37.887Z,31.42
2019-02-21T08:14:37.866Z,31.23
2019-02-21T08:15:37.940Z,31.52
2019-02-21T08:16:37.971Z,31.14
2019-02-21T08:17:37.931Z,31.24
2019-02-21T08:18:37.812Z,31.45
2019-02-21T08:19:37.811Z,32.15
2019-02-21T08:20:40.921Z,31.96
2019-02-21T08:21:37.905Z,31.88
2019-02-21T08:22:37.880Z,32.57
2019-02-21T08:23:37.777Z,33.48
2019-02-21T08:24:37.778Z,33.00
2019-02-21T08:25:37.788Z,33.20
2019-02-21T08:26:37.730Z,33.40
2019-02-21T08:27:37.749Z,33.81
2019-02-21T08:28:37.874Z,33.62
2019-02-21T08:29:37.703Z,33.93
2019-02-21T08:30:37.747Z,33.83
2019-02-21T08:31:37.659Z,34.33
2019-02-21T08:32:37.718Z,34.01
2019-02-21T08:33:37.691Z,34.31
2019-02-21T08:34:37.713Z,33.90
2019-02-21T08:35:37.743Z,33.59
2019-02-21T08:36:37.699Z,33.39
2019-02-21T08:37:37.622Z,32.97
2019-02-21T08:38:37.684Z,32.78
2019-02-21T08:39:37.632Z,32.06
2019-02-21T08:40:37.605Z,31.95
2019-02-21T08:41:37.567Z,32.35
2019-02-21T08:42:37.663Z,31.55
2019-02-21T08:43:37.550Z,31.26
2019-02-21T08:44:37.522Z,31.24
2019-02-21T08:45:37.620Z,31.34
2019-02-21T08:46:37.520Z,31.44
2019-02-21T08:47:37.511Z,31.44
2019-02-21T08:48:40.306Z,31.34
2019-02-21T08:49:37.474Z,31.23
2019-02-21T08:50:37.474Z,31.42
2019-02-21T08:51:37.458Z,31.32
2019-02-21T08:52:37.448Z,31.52
2019-02-21T08:53:37.676Z,30.43
2019-02-21T08:54:37.440Z,30.93
2019-02-21T08:55:37.502Z,31.02
2019-02-21T08:56:37.457Z,31.01
2019-02-21T08:57:37.409Z,30.83
2019-02-21T08:58:37.482Z,30.83
2019-02-21T08:59:37.421Z,31.02
2019-02-21T09:00:37.389Z,30.83
2019-02-21T09:01:37.393Z,30.43
2019-02-21T09:02:37.386Z,30.83
2019-02-21T09:03:37.450Z,31.02
2019-02-21T09:04:37.346Z,30.81
2019-02-21T09:05:37.342Z,30.71
2019-02-21T09:06:37.387Z,30.81
2019-02-21T09:07:37.365Z,31.31
2019-02-21T09:08:37.408Z,30.91
2019-02-21T09:09:37.309Z,30.02
2019-02-21T09:10:37.277Z,29.82
2019-02-21T09:11:37.284Z,29.82
2019-02-21T09:12:37.278Z,30.91
2019-02-21T09:13:37.455Z,30.71
2019-02-21T09:14:37.316Z,30.71
2019-02-21T09:15:37.257Z,30.71
2019-02-21T09:16:37.241Z,31.31
2019-02-21T09:17:37.215Z,31.01
2019-02-21T09:18:37.275Z,30.91
2019-02-21T09:19:37.178Z,29.72
2019-02-21T09:20:37.245Z,29.92
2019-02-21T09:21:37.187Z,30.12
2019-02-21T09:22:37.143Z,29.81
2019-02-21T09:23:37.133Z,30.02
2019-02-21T09:24:40.189Z,30.10
2019-02-21T09:25:38.138Z,30.12
2019-02-21T09:26:37.173Z,29.72
2019-02-21T09:27:37.318Z,30.02
2019-02-21T09:28:37.148Z,30.02
2019-02-21T09:29:37.158Z,29.92
2019-02-21T09:30:37.063Z,29.82
2019-02-21T09:31:37.139Z,29.63
2019-02-21T09:32:37.144Z,29.82
2019-02-21T09:33:37.349Z,29.92
2019-02-21T09:34:37.121Z,30.10
2019-02-21T09:35:37.074Z,30.02
2019-02-21T09:36:36.989Z,29.91
2019-02-21T09:37:37.039Z,29.92
2019-02-21T09:38:36.972Z,30.12
2019-02-21T09:39:36.965Z,29.63
2019-02-21T09:40:36.979Z,29.92
2019-02-21T09:41:36.962Z,30.02
2019-02-21T09:42:36.932Z,29.72
2019-02-21T09:43:36.922Z,31.11
2019-02-21T09:44:36.910Z,30.81
2019-02-21T09:45:36.911Z,30.22
2019-02-21T09:46:36.887Z,30.02
2019-02-21T09:47:36.874Z,29.72
2019-02-21T09:48:36.863Z,30.22
2019-02-21T09:49:36.886Z,30.00
2019-02-21T09:50:36.871Z,29.92
2019-02-21T09:51:36.887Z,30.02
2019-02-21T09:52:36.839Z,29.52
2019-02-21T09:53:36.839Z,29.52
2019-02-21T09:54:36.813Z,30.02
2019-02-21T09:55:36.819Z,30.02
2019-02-21T09:56:36.799Z,30.02
2019-02-21T09:57:36.809Z,29.92
2019-02-21T09:58:36.775Z,30.02
2019-02-21T09:59:36.777Z,29.63
2019-02-21T10:00:36.779Z,30.02
2019-02-21T10:01:36.734Z,30.00
2019-02-21T10:02:36.785Z,30.10
2019-02-21T10:03:36.816Z,30.21
2019-02-21T10:04:36.787Z,30.10
2019-02-21T10:05:36.763Z,29.91
2019-02-21T10:06:36.676Z,30.40
2019-02-21T10:07:37.237Z,30.02
2019-02-21T10:08:36.660Z,30.12
2019-02-21T10:09:36.662Z,29.52
2019-02-21T10:10:36.665Z,29.63
2019-02-21T10:11:36.631Z,30.02
2019-02-21T10:12:36.619Z,29.82
2019-02-21T10:13:36.619Z,29.72
2019-02-21T10:14:36.600Z,29.52
2019-02-21T10:15:36.606Z,30.22
2019-02-21T10:16:36.610Z,30.50
2019-02-21T10:17:36.572Z,30.21
2019-02-21T10:18:36.558Z,30.40
2019-02-21T10:19:36.585Z,30.10
2019-02-21T10:20:36.555Z,30.32
2019-02-21T10:21:36.521Z,30.40
2019-02-21T10:22:36.515Z,29.82
2019-02-21T10:23:36.513Z,30.02
2019-02-21T10:24:36.515Z,30.12
2019-02-21T10:25:36.493Z,29.82
2019-02-21T10:26:36.518Z,29.52
2019-02-21T10:27:36.468Z,30.02
2019-02-21T10:28:36.457Z,30.40
2019-02-21T10:29:36.436Z,30.41
2019-02-21T10:30:36.559Z,30.21
2019-02-21T10:31:36.418Z,30.30
2019-02-21T10:32:36.410Z,30.80
2019-02-21T10:33:46.284Z,29.71
2019-02-21T10:34:43.019Z,30.41
2019-02-21T10:35:37.408Z,30.50
2019-02-21T10:36:36.370Z,30.41
2019-02-21T10:37:36.363Z,29.92
2019-02-21T10:38:36.349Z,30.12
2019-02-21T10:39:36.344Z,29.52
2019-02-21T10:40:36.347Z,29.52
2019-02-21T10:41:36.315Z,29.63
2019-02-21T10:42:36.310Z,29.72
2019-02-21T10:43:36.303Z,31.13
2019-02-21T10:44:36.287Z,30.63
2019-02-21T10:45:47.093Z,30.84
2019-02-21T10:46:37.265Z,31.14
2019-02-21T10:47:36.257Z,31.14
2019-02-21T10:48:36.249Z,31.05
2019-02-21T10:49:36.233Z,31.55
2019-02-21T10:50:36.245Z,31.95
2019-02-21T10:51:36.226Z,32.36
2019-02-21T10:52:36.208Z,31.96
2019-02-21T10:53:36.196Z,31.68
2019-02-21T10:54:36.193Z,32.87
2019-02-21T10:55:36.205Z,32.69
2019-02-21T10:56:36.164Z,32.39
2019-02-21T10:57:36.150Z,32.39
2019-02-21T10:58:36.140Z,33.18
2019-02-21T10:59:46.158Z,33.29
2019-02-21T11:00:37.144Z,32.79
2019-02-21T11:01:36.111Z,32.39
2019-02-21T11:02:36.098Z,32.67
2019-02-21T11:03:36.091Z,32.87
2019-02-21T11:04:36.091Z,31.77
2019-02-21T11:05:36.085Z,31.96
2019-02-21T11:06:36.075Z,31.55
2019-02-21T11:07:36.053Z,31.63
2019-02-21T11:08:36.055Z,31.34
2019-02-21T11:09:36.036Z,31.32
2019-02-21T11:10:36.027Z,30.83
2019-02-21T11:11:36.010Z,31.13
2019-02-21T11:12:36.010Z,29.82
2019-02-21T11:13:36.011Z,29.82
2019-02-21T11:14:46.927Z,30.02
2019-02-21T11:15:36.978Z,29.82
2019-02-21T11:16:35.965Z,30.02
2019-02-21T11:17:35.950Z,29.92
2019-02-21T11:18:36.006Z,30.22
2019-02-21T11:19:35.925Z,30.12
2019-02-21T11:20:35.922Z,30.02
2019-02-21T11:21:35.908Z,30.04
2019-02-21T11:22:35.908Z,29.92
2019-02-21T11:23:35.901Z,29.63
2019-02-21T11:24:35.924Z,29.82
2019-02-21T11:25:35.876Z,30.12
2019-02-21T11:26:35.853Z,30.12
2019-02-21T11:27:35.854Z,30.52
2019-02-21T11:28:35.854Z,30.41
2019-02-21T11:29:35.831Z,30.81
2019-02-21T11:30:35.834Z,30.80
2019-02-21T11:31:35.801Z,30.12
2019-02-21T11:32:35.799Z,29.92
2019-02-21T11:33:35.822Z,30.02
2019-02-21T11:34:38.042Z,29.92
2019-02-21T11:35:35.767Z,30.12
2019-02-21T11:36:35.752Z,29.82
2019-02-21T11:37:44.215Z,30.12
2019-02-21T11:38:36.749Z,29.82
2019-02-21T11:39:35.734Z,30.22
2019-02-21T11:40:35.718Z,29.92
2019-02-21T11:41:35.702Z,30.12
2019-02-21T11:42:35.705Z,30.02
2019-02-21T11:43:35.776Z,30.32
2019-02-21T11:44:35.676Z,30.32
2019-02-21T11:45:35.667Z,30.50
2019-02-21T11:46:35.680Z,29.81
2019-02-21T11:47:35.644Z,29.82
2019-02-21T11:48:35.651Z,30.02
2019-02-21T11:49:35.628Z,30.40
2019-02-21T11:50:35.609Z,30.32
2019-02-21T11:51:35.604Z,30.02
2019-02-21T11:52:35.603Z,30.02
2019-02-21T11:53:38.024Z,30.22
2019-02-21T11:54:35.570Z,30.22
2019-02-21T11:55:35.558Z,30.02
2019-02-21T11:56:35.584Z,29.82
2019-02-21T11:57:35.586Z,30.00
2019-02-21T11:58:35.564Z,30.02
2019-02-21T11:59:35.551Z,30.10
2019-02-21T12:00:35.518Z,30.70
2019-02-21T12:01:35.513Z,30.10
2019-02-21T12:02:38.847Z,30.70
2019-02-21T12:03:35.492Z,30.02
2019-02-21T12:04:35.462Z,29.81
2019-02-21T12:05:35.457Z,30.02
2019-02-21T12:06:35.446Z,30.10
2019-02-21T12:07:35.449Z,30.41
2019-02-21T12:08:35.449Z,30.12
2019-02-21T12:09:35.411Z,30.81
2019-02-21T12:10:35.404Z,30.50
2019-02-21T12:11:35.403Z,30.00
2019-02-21T12:12:35.381Z,29.82
2019-02-21T12:13:35.387Z,29.81
2019-02-21T12:14:35.358Z,30.40
2019-02-21T12:15:35.358Z,29.91
2019-02-21T12:16:35.379Z,29.71
2019-02-21T12:17:35.334Z,30.21
2019-02-21T12:18:35.336Z,29.91
2019-02-21T12:19:35.306Z,30.30
2019-02-21T12:20:35.298Z,30.00
2019-02-21T12:21:35.286Z,29.91
2019-02-21T12:22:35.275Z,30.30
2019-02-21T12:23:35.283Z,30.22
2019-02-21T12:24:35.259Z,30.41
2019-02-21T12:25:35.249Z,30.32
2019-02-21T12:26:35.239Z,30.41
2019-02-21T12:27:35.236Z,30.12
2019-02-21T12:28:35.235Z,29.92
2019-02-21T12:29:35.210Z,29.92
2019-02-21T12:30:35.293Z,30.00
2019-02-21T12:31:35.192Z,30.32
2019-02-21T12:32:35.183Z,30.21
2019-02-21T12:33:35.198Z,30.00
2019-02-21T12:34:35.156Z,30.30
2019-02-21T12:35:35.141Z,30.21
2019-02-21T12:36:35.160Z,30.21
2019-02-21T12:37:35.129Z,29.92
2019-02-21T12:38:35.110Z,30.30
2019-02-21T12:39:35.115Z,30.50
2019-02-21T12:40:35.089Z,30.12
2019-02-21T12:41:35.127Z,30.02
2019-02-21T12:42:35.074Z,30.32
2019-02-21T12:43:35.061Z,30.81
2019-02-21T12:44:35.064Z,30.10
2019-02-21T12:45:35.048Z,30.00
2019-02-21T12:46:35.061Z,30.21
2019-02-21T12:47:35.027Z,29.82
2019-02-21T12:48:35.020Z,30.40
2019-02-21T12:49:35.137Z,29.82
2019-02-21T12:50:43.942Z,30.00
2019-02-21T12:51:35.979Z,29.81
2019-02-21T12:52:34.971Z,30.00